Time;durP1;ratioP1;P1;durP2;ratioP2;P2;SDS_P1;SDS_P2;PMS_P1;PMS_P2;Temp;Humidity;BMP_temperature;BMP_pressure;BME280_temperature;BME280_humidity;BME280_pressure;Samples;Min_cycle;Max_cycle;Signal;HPM_P1;HPM_P2
2022/08/16 00:01:48;;;;;;;14.25;12.85;;;21.20;99.90;;;;;;5050301;28;20045;-77
2022/08/16 00:04:15;;;;;;;15.30;12.57;;;21.00;99.90;;;;;;5051232;28;20043;-76
2022/08/16 00:06:41;;;;;;;14.02;12.77;;;21.00;99.90;;;;;;5055333;28;20108;-76
2022/08/16 00:09:08;;;;;;;14.65;13.15;;;21.00;99.90;;;;;;5058324;28;20069;-76
2022/08/16 00:11:34;;;;;;;15.77;14.38;;;21.00;99.90;;;;;;5055106;28;20033;-78
2022/08/16 00:14:01;;;;;;;16.83;15.02;;;21.10;99.90;;;;;;5057405;28;20124;-77
2022/08/16 00:16:30;;;;;;;16.58;14.40;;;21.20;99.90;;;;;;5050255;28;20477;-78
2022/08/16 00:18:59;;;;;;;17.38;15.18;;;21.20;99.90;;;;;;5066805;28;20047;-78
2022/08/16 00:21:26;;;;;;;18.48;16.60;;;21.20;99.90;;;;;;5064215;28;20063;-77
2022/08/16 00:23:52;;;;;;;17.13;15.38;;;21.30;99.90;;;;;;5066908;28;20048;-78
2022/08/16 00:26:18;;;;;;;17.83;15.85;;;21.30;99.90;;;;;;5056715;28;20051;-75
2022/08/16 00:28:43;;;;;;;17.38;15.63;;;21.30;99.90;;;;;;5068045;28;20127;-76
2022/08/16 00:31:09;;;;;;;19.05;17.00;;;21.30;99.90;;;;;;5062438;28;20060;-76
2022/08/16 00:33:35;;;;;;;18.42;16.50;;;21.40;99.90;;;;;;5049139;28;20044;-75
2022/08/16 00:36:00;;;;;;;19.90;17.88;;;21.40;99.90;;;;;;5057414;28;20084;-75
2022/08/16 00:38:26;;;;;;;19.83;17.92;;;21.50;99.90;;;;;;5016136;28;20522;-76
2022/08/16 00:40:53;;;;;;;19.63;17.67;;;21.50;99.90;;;;;;5037399;28;20412;-75
2022/08/16 00:43:26;;;;;;;20.10;18.00;;;21.50;99.90;;;;;;5049053;28;20033;-75
2022/08/16 00:45:58;;;;;;;19.85;17.85;;;21.50;99.90;;;;;;5066520;28;20144;-75
2022/08/16 00:48:24;;;;;;;20.77;18.58;;;21.50;99.90;;;;;;5064008;28;20064;-76
2022/08/16 00:50:49;;;;;;;20.45;18.40;;;21.50;99.90;;;;;;5034191;28;20037;-75
2022/08/16 00:53:16;;;;;;;19.50;17.67;;;21.50;99.90;;;;;;5052626;28;20040;-76
2022/08/16 00:55:51;;;;;;;19.30;17.30;;;21.40;99.90;;;;;;5054897;28;20047;-75
2022/08/16 00:58:19;;;;;;;18.30;16.05;;;21.40;99.90;;;;;;5062452;28;20040;-76
2022/08/16 01:00:47;;;;;;;20.33;18.23;;;21.40;99.90;;;;;;5050478;28;20519;-76
2022/08/16 01:03:16;;;;;;;20.63;18.35;;;21.40;99.90;;;;;;5054870;28;20062;-77
2022/08/16 01:05:43;;;;;;;20.30;18.35;;;21.40;99.90;;;;;;5057271;28;20501;-76
2022/08/16 01:08:12;;;;;;;18.58;16.85;;;21.50;99.90;;;;;;5071405;28;20346;-76
2022/08/16 01:10:38;;;;;;;20.83;18.20;;;21.50;99.90;;;;;;5048495;28;20550;-76
2022/08/16 01:13:10;;;;;;;18.85;17.00;;;21.50;99.90;;;;;;5055279;28;20048;-77
2022/08/16 01:15:39;;;;;;;20.23;18.25;;;21.50;99.90;;;;;;5047789;28;20074;-76
2022/08/16 01:18:07;;;;;;;19.15;17.15;;;21.60;99.90;;;;;;5068651;28;20059;-75
2022/08/16 01:20:37;;;;;;;20.88;18.77;;;21.60;99.90;;;;;;5061258;28;20091;-76
2022/08/16 01:23:27;;;;;;;22.58;18.42;;;21.60;99.90;;;;;;5061869;28;20448;-75
2022/08/16 01:25:54;;;;;;;20.77;18.35;;;21.60;99.90;;;;;;5055194;28;20435;-75
2022/08/16 01:28:20;;;;;;;17.45;15.85;;;21.60;99.90;;;;;;5051567;28;20075;-75
2022/08/16 01:30:54;;;;;;;19.10;17.05;;;21.50;99.90;;;;;;5039753;28;20044;-75
2022/08/16 01:33:20;;;;;;;19.23;16.83;;;21.50;99.90;;;;;;5046310;28;20056;-75
2022/08/16 01:35:56;;;;;;;21.20;18.25;;;21.50;99.90;;;;;;5048061;28;20094;-75
2022/08/16 01:38:37;;;;;;;21.35;19.15;;;21.50;99.90;;;;;;5068251;28;20045;-76
2022/08/16 01:41:17;;;;;;;20.75;18.83;;;21.50;99.90;;;;;;5065402;28;20372;-75
2022/08/16 01:43:44;;;;;;;21.30;18.50;;;21.40;99.90;;;;;;5071961;28;20041;-77
2022/08/16 01:46:32;;;;;;;19.95;17.80;;;21.30;99.90;;;;;;5060918;28;20051;-76
2022/08/16 01:49:14;;;;;;;19.90;17.77;;;21.30;99.90;;;;;;5040515;28;20029;-78
2022/08/16 01:51:42;;;;;;;20.52;18.45;;;21.30;99.90;;;;;;5054187;28;20044;-76
2022/08/16 01:54:07;;;;;;;20.98;18.83;;;21.20;99.90;;;;;;5061004;28;20111;-76
2022/08/16 01:56:34;;;;;;;22.50;20.23;;;21.10;99.90;;;;;;5052723;28;20500;-76
2022/08/16 01:59:02;;;;;;;21.95;18.90;;;21.10;99.90;;;;;;5073487;28;20037;-76
2022/08/16 02:01:29;;;;;;;21.75;19.08;;;21.20;99.90;;;;;;5057723;28;20033;-76
2022/08/16 02:03:56;;;;;;;20.65;18.67;;;21.10;99.90;;;;;;5059738;28;20072;-76
2022/08/16 02:06:21;;;;;;;22.17;20.08;;;21.10;99.90;;;;;;5049391;28;20049;-76
2022/08/16 02:08:47;;;;;;;21.42;19.30;;;21.10;99.90;;;;;;5044208;28;20549;-77
2022/08/16 02:11:13;;;;;;;22.40;20.10;;;21.10;99.90;;;;;;5060889;28;20357;-76
2022/08/16 02:13:40;;;;;;;21.30;19.20;;;21.10;99.90;;;;;;5066870;28;20123;-76
2022/08/16 02:16:06;;;;;;;22.40;20.20;;;21.00;99.90;;;;;;5049195;28;20485;-75
2022/08/16 02:18:32;;;;;;;21.70;19.42;;;21.10;99.90;;;;;;5043550;28;20094;-76
2022/08/16 02:20:59;;;;;;;23.30;21.05;;;21.00;99.90;;;;;;5051625;28;20131;-77
2022/08/16 02:23:25;;;;;;;23.60;21.20;;;21.00;99.90;;;;;;5060856;28;20118;-76
2022/08/16 02:25:51;;;;;;;24.88;22.27;;;21.00;99.90;;;;;;5063339;28;20064;-76
2022/08/16 02:28:17;;;;;;;23.77;21.45;;;20.90;99.90;;;;;;5054169;28;20431;-77
2022/08/16 02:30:44;;;;;;;23.10;20.73;;;20.90;99.90;;;;;;5034906;28;20044;-77
2022/08/16 02:33:10;;;;;;;24.55;22.05;;;21.00;99.90;;;;;;5053131;28;20572;-75
2022/08/16 02:35:36;;;;;;;22.98;20.67;;;20.90;99.90;;;;;;5036048;28;20460;-75
2022/08/16 02:38:03;;;;;;;24.88;21.05;;;20.90;99.90;;;;;;5069157;28;20094;-76
2022/08/16 02:40:29;;;;;;;23.80;21.45;;;20.90;99.90;;;;;;5042627;28;20037;-76
2022/08/16 02:42:55;;;;;;;25.75;23.02;;;20.90;99.90;;;;;;5063639;28;20060;-77
2022/08/16 02:45:24;;;;;;;26.35;23.83;;;20.90;99.90;;;;;;5050536;28;20107;-76
2022/08/16 02:47:49;;;;;;;25.65;22.83;;;20.80;99.90;;;;;;5051130;28;20048;-76
2022/08/16 02:50:15;;;;;;;26.20;23.52;;;20.80;99.90;;;;;;5047404;28;20041;-75
2022/08/16 02:52:42;;;;;;;26.65;23.85;;;20.80;99.90;;;;;;5068047;28;20036;-75
2022/08/16 02:55:08;;;;;;;26.23;23.58;;;20.80;99.90;;;;;;5037608;28;20044;-75
2022/08/16 02:57:34;;;;;;;26.02;23.33;;;20.80;99.90;;;;;;5052877;28;20576;-75
2022/08/16 03:00:04;;;;;;;26.33;23.63;;;20.90;99.90;;;;;;5045397;28;20128;-76
2022/08/16 03:02:30;;;;;;;24.65;22.25;;;20.90;99.90;;;;;;5034457;28;20041;-77
2022/08/16 03:04:56;;;;;;;24.63;22.27;;;20.90;99.90;;;;;;5063754;28;20037;-76
2022/08/16 03:07:22;;;;;;;25.98;23.25;;;20.90;99.90;;;;;;5046836;28;20620;-76
2022/08/16 03:09:47;;;;;;;25.10;22.75;;;20.90;99.90;;;;;;5065952;28;20032;-76
2022/08/16 03:12:13;;;;;;;24.98;22.55;;;20.90;99.90;;;;;;5041526;28;20095;-76
2022/08/16 03:14:38;;;;;;;24.15;21.67;;;20.90;99.90;;;;;;5050387;28;20040;-76
2022/08/16 03:17:04;;;;;;;23.02;20.73;;;20.90;99.90;;;;;;5064850;28;20701;-76
2022/08/16 03:19:32;;;;;;;21.92;19.92;;;20.90;99.90;;;;;;5049618;28;20074;-76
2022/08/16 03:21:58;;;;;;;23.05;20.65;;;20.90;99.90;;;;;;5038491;28;20134;-76
2022/08/16 03:24:24;;;;;;;23.17;20.80;;;20.90;99.90;;;;;;5051269;28;20554;-76
2022/08/16 03:26:49;;;;;;;22.35;20.08;;;20.90;99.90;;;;;;5032710;28;20037;-76
2022/08/16 03:29:15;;;;;;;22.15;20.15;;;20.90;99.90;;;;;;5058257;28;20071;-76
2022/08/16 03:31:41;;;;;;;21.88;19.58;;;20.90;99.90;;;;;;5048646;28;20111;-76
2022/08/16 03:34:06;;;;;;;22.98;20.45;;;20.80;99.90;;;;;;5044951;28;20041;-76
2022/08/16 03:36:32;;;;;;;21.83;19.55;;;20.80;99.90;;;;;;5051201;28;20081;-74
2022/08/16 03:38:58;;;;;;;22.45;19.27;;;20.70;99.90;;;;;;5040254;28;20090;-75
2022/08/16 03:41:25;;;;;;;20.67;18.58;;;20.70;99.90;;;;;;5031997;28;20473;-74
2022/08/16 03:43:53;;;;;;;22.08;19.75;;;20.70;99.90;;;;;;5056559;28;20142;-75
2022/08/16 03:46:21;;;;;;;20.10;18.10;;;20.60;99.90;;;;;;5047493;28;20071;-75
2022/08/16 03:48:48;;;;;;;23.27;20.73;;;20.60;99.90;;;;;;5048995;28;20041;-75
2022/08/16 03:51:14;;;;;;;21.85;18.20;;;20.60;99.90;;;;;;5040392;28;20036;-75
2022/08/16 03:53:41;;;;;;;22.02;19.80;;;20.50;99.90;;;;;;5064978;28;20041;-75
2022/08/16 03:56:07;;;;;;;26.08;20.38;;;20.50;99.90;;;;;;5040507;28;20044;-75
2022/08/16 03:58:34;;;;;;;23.80;19.65;;;20.40;99.90;;;;;;5042256;28;20130;-75
2022/08/16 04:01:00;;;;;;;21.52;19.33;;;20.40;99.90;;;;;;5066915;28;20161;-75
2022/08/16 04:03:26;;;;;;;23.80;21.50;;;20.30;99.90;;;;;;5049268;28;20518;-76
2022/08/16 04:05:51;;;;;;;23.02;20.75;;;20.30;99.90;;;;;;5052707;28;20037;-74
2022/08/16 04:08:20;;;;;;;23.42;21.13;;;20.30;99.90;;;;;;5036460;28;20481;-75
2022/08/16 04:10:47;;;;;;;24.10;21.63;;;20.30;99.90;;;;;;5050685;28;20056;-74
2022/08/16 04:13:13;;;;;;;23.73;20.60;;;20.20;99.90;;;;;;5066102;28;20048;-76
2022/08/16 04:15:39;;;;;;;22.80;20.55;;;20.20;99.90;;;;;;5036388;28;20037;-74
2022/08/16 04:18:05;;;;;;;22.98;20.67;;;20.20;99.90;;;;;;5062355;28;20496;-75
2022/08/16 04:20:32;;;;;;;22.17;19.83;;;20.20;99.90;;;;;;5061603;28;20051;-75
2022/08/16 04:22:59;;;;;;;22.85;20.55;;;20.20;99.90;;;;;;5067404;28;20059;-75
2022/08/16 04:25:25;;;;;;;21.58;19.48;;;20.20;99.90;;;;;;5047046;28;20036;-75
2022/08/16 04:27:51;;;;;;;23.73;21.17;;;20.20;99.90;;;;;;5048667;28;20606;-75
2022/08/16 04:30:18;;;;;;;23.65;21.33;;;20.20;99.90;;;;;;5045962;28;20033;-75
2022/08/16 04:32:44;;;;;;;24.35;21.27;;;20.10;99.90;;;;;;5052468;28;20048;-75
2022/08/16 04:35:15;;;;;;;23.77;21.35;;;20.10;99.90;;;;;;5052251;28;20072;-75
2022/08/16 04:37:42;;;;;;;21.73;19.42;;;20.10;99.90;;;;;;5050752;28;20044;-76
2022/08/16 04:40:10;;;;;;;20.40;18.40;;;20.10;99.90;;;;;;5061605;28;20079;-75
2022/08/16 04:42:39;;;;;;;21.85;19.65;;;20.10;99.90;;;;;;5050608;28;20056;-76
2022/08/16 04:45:06;;;;;;;23.40;20.30;;;20.10;99.90;;;;;;5056439;28;20050;-75
2022/08/16 04:47:32;;;;;;;21.60;19.13;;;20.00;99.90;;;;;;5044887;28;20071;-76
2022/08/16 04:49:58;;;;;;;24.10;19.58;;;20.00;99.90;;;;;;5044831;28;20036;-76
2022/08/16 04:52:23;;;;;;;24.63;21.38;;;20.10;99.90;;;;;;5052497;28;20041;-76
2022/08/16 04:54:49;;;;;;;21.85;19.60;;;20.00;99.90;;;;;;5041882;28;20032;-75
2022/08/16 04:57:15;;;;;;;22.00;19.80;;;20.00;99.90;;;;;;5046438;28;20099;-75
2022/08/16 04:59:40;;;;;;;21.25;19.05;;;20.00;99.90;;;;;;5046183;28;20032;-76
2022/08/16 05:02:06;;;;;;;24.30;21.15;;;20.00;99.90;;;;;;5054387;28;20033;-75
2022/08/16 05:04:32;;;;;;;22.15;19.90;;;20.00;99.90;;;;;;5050886;28;20041;-75
2022/08/16 05:06:58;;;;;;;24.00;21.33;;;20.00;99.90;;;;;;5047906;28;20044;-75
2022/08/16 05:09:23;;;;;;;23.77;21.27;;;20.10;99.90;;;;;;5070687;28;20433;-75
2022/08/16 05:11:49;;;;;;;22.55;20.35;;;20.00;99.90;;;;;;5040845;28;20116;-76
2022/08/16 05:14:15;;;;;;;21.15;18.83;;;20.10;99.90;;;;;;5046626;28;20408;-76
2022/08/16 05:16:41;;;;;;;23.50;19.40;;;20.10;99.90;;;;;;5058416;28;20045;-76
2022/08/16 05:19:07;;;;;;;22.48;20.25;;;20.10;99.90;;;;;;5067673;28;20033;-74
2022/08/16 05:21:34;;;;;;;20.77;18.77;;;20.10;99.90;;;;;;5053610;28;20055;-74
2022/08/16 05:24:00;;;;;;;21.70;18.83;;;20.20;99.90;;;;;;5071217;28;20492;-74
2022/08/16 05:26:28;;;;;;;20.67;18.40;;;20.10;99.90;;;;;;5033694;28;20039;-78
2022/08/16 05:28:56;;;;;;;23.35;20.00;;;20.20;99.90;;;;;;5062641;28;20033;-76
2022/08/16 05:31:26;;;;;;;21.05;18.85;;;20.20;99.90;;;;;;5045221;28;20068;-76
2022/08/16 05:33:52;;;;;;;24.17;20.65;;;20.10;99.90;;;;;;5055539;28;20094;-75
2022/08/16 05:36:18;;;;;;;22.70;20.30;;;20.10;99.90;;;;;;5063395;28;20416;-75
2022/08/16 05:38:44;;;;;;;21.48;19.35;;;20.00;99.90;;;;;;5048350;28;20370;-75
2022/08/16 05:41:10;;;;;;;21.90;19.70;;;20.00;99.90;;;;;;5054695;28;20114;-76
2022/08/16 05:43:36;;;;;;;22.33;19.67;;;20.00;99.90;;;;;;5035259;28;20068;-75
2022/08/16 05:46:02;;;;;;;23.00;20.75;;;20.00;99.90;;;;;;5055899;28;20091;-76
2022/08/16 05:48:28;;;;;;;22.85;20.52;;;20.00;99.90;;;;;;5059402;28;20041;-76
2022/08/16 05:50:53;;;;;;;22.25;20.05;;;20.00;99.90;;;;;;5036253;28;20155;-76
2022/08/16 05:53:19;;;;;;;23.10;20.70;;;20.10;99.90;;;;;;5036442;28;20044;-76
2022/08/16 05:55:45;;;;;;;20.30;18.30;;;20.10;99.90;;;;;;5042689;28;20037;-76
2022/08/16 05:58:10;;;;;;;21.95;19.52;;;20.00;99.90;;;;;;5049735;28;20407;-75
2022/08/16 06:00:36;;;;;;;22.05;18.98;;;20.10;99.90;;;;;;5038013;28;20098;-76
2022/08/16 06:03:02;;;;;;;21.70;19.60;;;20.10;99.90;;;;;;5048461;28;20068;-76
2022/08/16 06:05:27;;;;;;;22.00;19.90;;;20.20;99.90;;;;;;5066719;28;20362;-76
2022/08/16 06:07:53;;;;;;;23.10;20.67;;;20.20;99.90;;;;;;5051495;28;20124;-75
2022/08/16 06:10:19;;;;;;;21.65;18.45;;;20.20;99.90;;;;;;5032249;28;20044;-76
2022/08/16 06:12:45;;;;;;;21.45;19.33;;;20.30;99.90;;;;;;5038453;28;20110;-76
2022/08/16 06:15:14;;;;;;;21.42;19.08;;;20.20;99.90;;;;;;5036066;28;20477;-75
2022/08/16 06:17:40;;;;;;;21.65;19.10;;;20.30;99.90;;;;;;5051102;28;20127;-75
2022/08/16 06:20:07;;;;;;;24.10;20.30;;;20.30;99.90;;;;;;5047005;28;20064;-77
2022/08/16 06:22:36;;;;;;;21.45;18.77;;;20.40;99.90;;;;;;5054794;28;20057;-75
2022/08/16 06:25:02;;;;;;;21.73;18.75;;;20.50;99.90;;;;;;5044332;28;20102;-74
2022/08/16 06:27:27;;;;;;;19.65;17.80;;;20.60;99.90;;;;;;5053265;28;20037;-75
2022/08/16 06:29:53;;;;;;;20.83;17.27;;;20.60;99.90;;;;;;5043276;28;20139;-75
2022/08/16 06:32:19;;;;;;;17.50;15.70;;;20.70;99.90;;;;;;5051395;28;20041;-75
2022/08/16 06:34:44;;;;;;;18.23;16.25;;;20.70;99.90;;;;;;5044987;28;20043;-76
2022/08/16 06:37:10;;;;;;;19.85;17.75;;;20.60;99.90;;;;;;5021413;28;20401;-78
2022/08/16 06:39:36;;;;;;;17.88;16.10;;;20.70;99.90;;;;;;5048801;28;20032;-77
2022/08/16 06:42:02;;;;;;;19.48;16.00;;;20.70;99.90;;;;;;5053615;28;20500;-75
2022/08/16 06:44:28;;;;;;;19.60;16.58;;;20.80;99.90;;;;;;5052187;28;20078;-75
2022/08/16 06:46:54;;;;;;;19.27;17.27;;;20.90;99.90;;;;;;5034147;28;20037;-76
2022/08/16 06:49:19;;;;;;;17.38;15.70;;;20.90;99.90;;;;;;5024730;28;20040;-77
2022/08/16 06:51:45;;;;;;;17.48;15.68;;;21.00;99.90;;;;;;5043773;28;20043;-76
2022/08/16 06:54:11;;;;;;;19.92;17.75;;;21.10;99.90;;;;;;5034114;28;20048;-75
2022/08/16 06:56:37;;;;;;;18.83;16.65;;;21.10;99.90;;;;;;5055705;28;20041;-75
2022/08/16 06:59:03;;;;;;;16.90;15.25;;;21.10;99.90;;;;;;5049525;28;20120;-75
2022/08/16 07:01:29;;;;;;;18.75;16.52;;;21.20;99.90;;;;;;5052014;28;20618;-74
2022/08/16 07:03:54;;;;;;;18.25;16.35;;;21.30;99.90;;;;;;5067892;28;20862;-75
2022/08/16 07:06:21;;;;;;;18.20;16.08;;;21.30;99.90;;;;;;5068637;28;20391;-76
2022/08/16 07:08:47;;;;;;;18.85;16.58;;;21.40;99.90;;;;;;5068191;28;20357;-76
2022/08/16 07:11:15;;;;;;;17.08;15.40;;;21.40;99.90;;;;;;5051686;28;20047;-76
2022/08/16 07:13:41;;;;;;;17.23;15.27;;;21.50;99.90;;;;;;5064267;28;20043;-76
2022/08/16 07:16:13;;;;;;;18.30;16.50;;;21.60;99.90;;;;;;5068401;28;20051;-76
2022/08/16 07:18:40;;;;;;;17.70;15.30;;;21.60;99.90;;;;;;5050025;28;20037;-78
2022/08/16 07:21:07;;;;;;;17.50;15.73;;;21.70;99.90;;;;;;5053202;28;20398;-75
2022/08/16 07:23:33;;;;;;;18.40;16.10;;;21.70;99.90;;;;;;5069218;28;20143;-75
2022/08/16 07:25:58;;;;;;;18.52;16.60;;;21.80;99.90;;;;;;5020441;28;20078;-75
2022/08/16 07:28:24;;;;;;;17.88;15.98;;;21.90;99.90;;;;;;5069485;28;20131;-75
2022/08/16 07:30:50;;;;;;;15.93;14.18;;;21.90;99.90;;;;;;5070157;28;20452;-75
2022/08/16 07:33:17;;;;;;;18.70;16.00;;;21.90;99.90;;;;;;5036646;28;20127;-75
2022/08/16 07:35:43;;;;;;;19.60;15.38;;;22.00;99.90;;;;;;5053540;28;20123;-75
2022/08/16 07:38:10;;;;;;;16.10;14.32;;;22.10;99.90;;;;;;5053120;28;20066;-76
2022/08/16 07:40:36;;;;;;;15.38;13.60;;;22.10;99.90;;;;;;5070168;28;20036;-75
2022/08/16 07:43:02;;;;;;;15.02;13.50;;;22.10;99.90;;;;;;5053060;28;20374;-75
2022/08/16 07:45:28;;;;;;;14.95;13.48;;;22.20;99.90;;;;;;5069693;28;20040;-76
2022/08/16 07:47:54;;;;;;;14.43;13.02;;;22.30;99.90;;;;;;5069938;28;20040;-76
2022/08/16 07:50:20;;;;;;;15.30;12.98;;;22.30;99.90;;;;;;5035950;28;20089;-76
2022/08/16 07:52:47;;;;;;;14.15;12.38;;;22.40;99.90;;;;;;5052965;28;20032;-76
2022/08/16 07:55:14;;;;;;;14.98;13.13;;;22.50;99.90;;;;;;5087624;28;20052;-76
2022/08/16 07:57:41;;;;;;;14.02;12.38;;;22.40;99.90;;;;;;5056852;28;20051;-76
2022/08/16 08:00:08;;;;;;;15.40;11.27;;;22.50;99.90;;;;;;5053957;28;20048;-76
2022/08/16 08:02:35;;;;;;;12.43;11.13;;;22.50;99.90;;;;;;5069983;28;20040;-76
2022/08/16 08:05:02;;;;;;;12.05;10.95;;;22.60;99.90;;;;;;5038343;28;20390;-76
2022/08/16 08:07:28;;;;;;;15.88;11.73;;;22.70;99.90;;;;;;5040147;28;20472;-75
2022/08/16 08:09:54;;;;;;;11.30;10.15;;;22.80;99.90;;;;;;5056377;28;20041;-75
2022/08/16 08:12:20;;;;;;;11.68;10.68;;;22.80;99.90;;;;;;5039332;28;20048;-76
2022/08/16 08:14:47;;;;;;;11.68;10.48;;;22.80;99.90;;;;;;5056048;28;20763;-74
2022/08/16 08:17:14;;;;;;;12.07;10.88;;;22.90;99.90;;;;;;5071904;28;20045;-77
2022/08/16 08:19:40;;;;;;;12.25;9.88;;;22.90;99.90;;;;;;5056382;28;20388;-76
2022/08/16 08:22:08;;;;;;;10.63;9.63;;;23.00;99.90;;;;;;5055209;28;20060;-76
2022/08/16 08:24:36;;;;;;;11.52;10.43;;;23.00;99.90;;;;;;5055918;28;20408;-75
2022/08/16 08:27:03;;;;;;;12.85;9.77;;;23.00;99.90;;;;;;5055722;28;20124;-75
2022/08/16 08:29:30;;;;;;;10.07;9.07;;;23.10;99.90;;;;;;5039054;28;20040;-78
2022/08/16 08:31:55;;;;;;;10.77;9.77;;;23.10;99.90;;;;;;5056156;28;20428;-77
2022/08/16 08:34:22;;;;;;;10.88;9.77;;;23.30;99.90;;;;;;5038258;28;20052;-75
2022/08/16 08:36:48;;;;;;;9.82;8.73;;;23.30;99.90;;;;;;5039106;28;20052;-75
2022/08/16 08:39:15;;;;;;;10.20;8.15;;;23.40;99.90;;;;;;5071764;28;20083;-76
2022/08/16 08:41:42;;;;;;;10.07;8.02;;;23.50;99.90;;;;;;5055237;28;20044;-76
2022/08/16 08:44:08;;;;;;;12.38;7.80;;;23.60;99.90;;;;;;5071613;28;20109;-77
2022/08/16 08:46:33;;;;;;;9.15;7.45;;;23.60;99.90;;;;;;5055344;28;20477;-76
2022/08/16 08:48:59;;;;;;;8.48;7.57;;;23.70;99.90;;;;;;5055330;28;20042;-77
2022/08/16 08:51:25;;;;;;;9.95;8.85;;;23.90;99.90;;;;;;5055343;28;20032;-75
2022/08/16 08:53:51;;;;;;;8.80;7.90;;;24.00;99.90;;;;;;5071773;28;20072;-77
2022/08/16 08:56:17;;;;;;;8.90;8.07;;;24.10;99.90;;;;;;5071454;28;20460;-75
2022/08/16 08:58:42;;;;;;;9.15;7.88;;;24.20;99.90;;;;;;5038903;28;20098;-75
2022/08/16 09:01:08;;;;;;;7.82;7.13;;;24.30;99.90;;;;;;5054811;28;20365;-76
2022/08/16 09:03:34;;;;;;;7.68;6.78;;;24.30;99.90;;;;;;5071799;28;20500;-76
2022/08/16 09:06:01;;;;;;;8.18;7.43;;;24.40;99.90;;;;;;5071573;28;20733;-75
2022/08/16 09:08:27;;;;;;;7.53;6.75;;;24.50;99.90;;;;;;5054978;28;20097;-75
2022/08/16 09:10:56;;;;;;;8.63;7.45;;;24.40;99.90;;;;;;5038356;28;20048;-74
2022/08/16 09:13:24;;;;;;;8.50;7.28;;;24.60;99.90;;;;;;5054464;28;20128;-76
2022/08/16 09:15:56;;;;;;;7.28;6.68;;;24.60;99.90;;;;;;5055042;28;20074;-76
2022/08/16 09:18:23;;;;;;;7.80;6.82;;;24.70;99.90;;;;;;5070825;28;20055;-76
2022/08/16 09:20:53;;;;;;;7.63;6.82;;;24.90;99.90;;;;;;5038496;28;20683;-76
2022/08/16 09:23:19;;;;;;;7.68;6.75;;;25.10;99.90;;;;;;5037377;28;20049;-76
2022/08/16 09:25:45;;;;;;;11.82;8.07;;;25.30;99.90;;;;;;5038606;28;20048;-75
2022/08/16 09:28:11;;;;;;;8.35;6.57;;;25.40;99.90;;;;;;5070956;28;20032;-75
2022/08/16 09:30:37;;;;;;;9.05;6.70;;;25.40;99.90;;;;;;5054462;28;20033;-77
2022/08/16 09:33:04;;;;;;;7.60;6.47;;;25.60;99.90;;;;;;5054578;28;20036;-77
2022/08/16 09:35:30;;;;;;;10.40;7.03;;;25.70;99.90;;;;;;5054492;28;20469;-77
2022/08/16 09:37:56;;;;;;;8.18;6.10;;;25.80;99.90;;;;;;5071129;28;20044;-75
2022/08/16 09:40:22;;;;;;;6.32;5.75;;;26.10;99.90;;;;;;5070911;28;20093;-77
2022/08/16 09:42:49;;;;;;;6.82;5.80;;;26.20;99.90;;;;;;5071086;28;20040;-76
2022/08/16 09:45:15;;;;;;;5.90;5.40;;;26.40;99.90;;;;;;5053686;28;20040;-75
2022/08/16 09:47:41;;;;;;;7.53;5.38;;;26.60;99.90;;;;;;5054192;28;20756;-76
2022/08/16 09:50:10;;;;;;;5.75;5.25;;;26.70;99.90;;;;;;5053438;28;20123;-76
2022/08/16 09:52:37;;;;;;;7.30;5.35;;;26.80;99.90;;;;;;5053614;28;20040;-76
2022/08/16 09:55:11;;;;;;;6.55;5.15;;;27.20;99.90;;;;;;5069904;28;20044;-75
2022/08/16 09:57:40;;;;;;;5.22;4.70;;;27.50;99.90;;;;;;5052992;28;20036;-76
2022/08/16 10:00:09;;;;;;;7.38;5.40;;;27.50;99.90;;;;;;5052628;28;20111;-77
2022/08/16 10:02:35;;;;;;;5.78;5.20;;;27.50;99.90;;;;;;5052779;28;20389;-76
2022/08/16 10:05:01;;;;;;;6.30;5.45;;;27.60;99.90;;;;;;5052738;28;20037;-78
2022/08/16 10:07:29;;;;;;;7.78;5.28;;;27.80;99.90;;;;;;5069800;28;20101;-76
2022/08/16 10:09:55;;;;;;;4.82;4.43;;;28.00;99.90;;;;;;5037462;28;20370;-77
2022/08/16 10:15:07;;;;;;;7.53;4.60;;;28.20;99.90;;;;;;5056501;28;20048;-78
2022/08/16 10:17:34;;;;;;;5.70;4.80;;;28.30;99.90;;;;;;5069796;28;20043;-75
2022/08/16 10:19:59;;;;;;;4.85;4.30;;;28.40;99.90;;;;;;5069540;28;20048;-78
2022/08/16 10:22:25;;;;;;;9.45;4.75;;;28.70;99.90;;;;;;5069594;28;20067;-77
2022/08/16 10:24:52;;;;;;;4.78;4.28;;;28.90;99.90;;;;;;5052944;28;20037;-76
2022/08/16 10:27:19;;;;;;;6.32;4.88;;;28.80;99.90;;;;;;5053144;28;20036;-77
2022/08/16 10:29:45;;;;;;;11.98;5.50;;;28.60;99.90;;;;;;5053853;28;20040;-77
2022/08/16 10:32:11;;;;;;;6.07;5.05;;;28.80;99.90;;;;;;5069555;28;20040;-76
2022/08/16 10:34:37;;;;;;;5.00;4.53;;;28.70;99.90;;;;;;5053481;28;20127;-77
2022/08/16 10:37:03;;;;;;;5.47;4.93;;;29.10;99.90;;;;;;5036889;28;20036;-76
2022/08/16 10:39:29;;;;;;;5.32;4.75;;;29.20;99.90;;;;;;5036714;28;20032;-79
2022/08/16 10:41:55;;;;;;;5.22;4.82;;;29.50;99.90;;;;;;5036811;28;20056;-78
2022/08/16 10:44:21;;;;;;;7.30;5.65;;;29.30;99.90;;;;;;5052573;28;20045;-79
2022/08/16 10:46:47;;;;;;;5.78;5.28;;;29.30;99.90;;;;;;5020093;28;20040;-80
2022/08/16 10:49:13;;;;;;;5.65;5.15;;;29.40;99.90;;;;;;5053049;28;20051;-80
2022/08/16 10:51:40;;;;;;;7.57;5.63;;;29.40;99.90;;;;;;5053672;28;20040;-79
2022/08/16 10:54:06;;;;;;;5.50;5.10;;;29.60;99.90;;;;;;5053066;28;20117;-78
2022/08/16 10:56:32;;;;;;;6.97;5.10;;;29.30;98.50;;;;;;5069678;28;20134;-80
2022/08/16 10:58:58;;;;;;;6.32;4.70;;;29.30;99.90;;;;;;5053231;28;20445;-80
2022/08/16 11:01:27;;;;;;;5.60;5.10;;;29.60;99.90;;;;;;5052445;28;20044;-78
2022/08/16 11:03:53;;;;;;;5.85;5.32;;;29.60;99.90;;;;;;5053078;28;20527;-80
2022/08/16 11:06:19;;;;;;;6.47;5.20;;;29.70;99.90;;;;;;5052650;28;20043;-80
2022/08/16 11:08:45;;;;;;;5.65;5.25;;;29.60;97.20;;;;;;5053428;28;20048;-79
2022/08/16 11:11:13;;;;;;;6.32;5.28;;;29.60;99.00;;;;;;5052947;28;20040;-77
2022/08/16 11:13:40;;;;;;;9.57;5.65;;;29.80;99.40;;;;;;5037322;28;20080;-78
2022/08/16 11:16:06;;;;;;;6.25;5.65;;;29.70;98.80;;;;;;5052874;28;20468;-80
2022/08/16 11:18:32;;;;;;;6.85;6.25;;;29.80;95.10;;;;;;5036323;28;20048;-79
2022/08/16 11:20:58;;;;;;;8.02;5.45;;;29.50;93.40;;;;;;5053095;28;20060;-80
2022/08/16 11:23:25;;;;;;;7.15;6.55;;;29.50;96.00;;;;;;5068932;28;20704;-80
2022/08/16 11:25:52;;;;;;;7.15;5.28;;;29.70;96.90;;;;;;5053088;28;20047;-79
2022/08/16 11:28:18;;;;;;;5.75;5.22;;;29.90;95.60;;;;;;5069013;28;20882;-80
2022/08/16 11:30:45;;;;;;;6.88;5.20;;;29.90;91.10;;;;;;5069760;28;20427;-81
2022/08/16 11:33:10;;;;;;;5.88;5.25;;;30.00;96.60;;;;;;5069286;28;20044;-80
2022/08/16 11:35:39;;;;;;;6.57;5.88;;;30.30;96.10;;;;;;5036036;28;20090;-81
2022/08/16 11:38:07;;;;;;;7.07;6.30;;;30.40;93.80;;;;;;5068913;28;20044;-78
2022/08/16 11:40:40;;;;;;;8.57;6.38;;;30.30;94.10;;;;;;5052230;28;20041;-77
2022/08/16 11:43:06;;;;;;;6.43;5.82;;;30.30;85.70;;;;;;5051816;28;20103;-79
2022/08/16 11:45:34;;;;;;;6.15;5.65;;;30.30;93.00;;;;;;5035879;28;20385;-80
2022/08/16 11:48:00;;;;;;;7.72;5.47;;;30.10;91.90;;;;;;5036263;28;20051;-78
2022/08/16 11:50:26;;;;;;;6.47;5.85;;;30.00;88.60;;;;;;5036231;28;20093;-79
2022/08/16 11:52:52;;;;;;;7.85;6.13;;;30.30;93.80;;;;;;5053063;28;20415;-80
2022/08/16 11:55:18;;;;;;;6.13;5.53;;;30.30;90.80;;;;;;5051444;28;20124;-78
2022/08/16 11:57:44;;;;;;;7.30;6.65;;;30.50;91.40;;;;;;5052379;28;20053;-79
2022/08/16 12:00:13;;;;;;;6.03;5.53;;;30.40;86.40;;;;;;5069081;28;20048;-77
2022/08/16 12:02:39;;;;;;;7.00;5.78;;;30.60;90.80;;;;;;5068936;28;20036;-79
2022/08/16 12:05:09;;;;;;;6.63;5.78;;;30.60;91.90;;;;;;5052384;28;20036;-78
2022/08/16 12:07:34;;;;;;;6.47;5.78;;;30.50;90.90;;;;;;5052164;28;20048;-80
2022/08/16 12:10:03;;;;;;;7.53;5.93;;;30.60;89.20;;;;;;5035924;28;20045;-81
2022/08/16 12:12:29;;;;;;;6.85;6.20;;;30.60;81.50;;;;;;5068552;28;20043;-78
2022/08/16 12:14:54;;;;;;;6.40;5.80;;;30.40;87.30;;;;;;5052497;28;20127;-79
2022/08/16 12:17:21;;;;;;;7.95;5.38;;;30.50;83.40;;;;;;5051789;28;20048;-78
2022/08/16 12:19:47;;;;;;;8.95;5.22;;;30.70;82.60;;;;;;5052197;28;20039;-78
2022/08/16 12:22:14;;;;;;;6.88;6.18;;;30.10;85.30;;;;;;5018782;28;20139;-79
2022/08/16 12:24:41;;;;;;;8.73;5.93;;;29.60;86.50;;;;;;5052360;28;20091;-77
2022/08/16 12:27:07;;;;;;;6.25;5.60;;;29.70;87.50;;;;;;5035595;28;20041;-79
2022/08/16 12:29:34;;;;;;;5.65;5.15;;;30.00;88.90;;;;;;5068760;28;20037;-79
2022/08/16 12:31:59;;;;;;;8.10;5.32;;;30.40;84.70;;;;;;5051928;28;20037;-79
2022/08/16 12:34:25;;;;;;;6.63;5.40;;;30.30;81.80;;;;;;5068345;28;20045;-79